createdAt,value
2022-11-19T00:00:37.212Z,11.3
2022-11-19T00:06:14.791Z,11.3
2022-11-19T00:11:58.528Z,11.3
2022-11-19T00:17:21.053Z,11.1
2022-11-19T00:22:43.311Z,11.1
2022-11-19T00:28:21.474Z,11.1
2022-11-19T00:34:14.182Z,11
2022-11-19T00:39:21.056Z,11
2022-11-19T00:44:59.985Z,10.9
2022-11-19T00:50:38.054Z,10.9
2022-11-19T00:56:15.442Z,10.9
2022-11-19T01:01:37.972Z,10.9
2022-11-19T01:07:00.789Z,10.9
2022-11-19T01:12:38.817Z,10.9
2022-11-19T01:18:15.855Z,10.8
2022-11-19T01:23:54.337Z,10.8
2022-11-19T01:29:21.170Z,10.8
2022-11-19T01:34:43.173Z,10.8
2022-11-19T01:40:20.806Z,10.8
2022-11-19T01:45:58.655Z,10.8
2022-11-19T01:51:20.491Z,10.8
2022-11-19T01:56:58.802Z,10.8
2022-11-19T02:02:36.686Z,10.8
2022-11-19T02:08:15.165Z,10.8
2022-11-19T02:13:37.009Z,10.8
2022-11-19T02:19:14.577Z,10.7
2022-11-19T02:24:57.805Z,10.6
2022-11-19T02:30:34.193Z,10.6
2022-11-19T02:35:55.258Z,10.4
2022-11-19T02:41:33.598Z,10.3
2022-11-19T02:46:40.621Z,10.1
2022-11-19T02:52:17.973Z,10
2022-11-19T02:57:39.597Z,9.8
2022-11-19T03:03:18.907Z,9.7
2022-11-19T03:08:40.624Z,9.6
2022-11-19T03:14:18.581Z,9.4
2022-11-19T03:19:40.290Z,9.3
2022-11-19T03:25:01.754Z,9.1
2022-11-19T03:30:24.289Z,9
2022-11-19T03:36:01.523Z,8.8
2022-11-19T03:41:40.092Z,8.6
2022-11-19T03:47:16.998Z,8.4
2022-11-19T03:52:55.564Z,8.2
2022-11-19T03:58:34.252Z,8.1
2022-11-19T04:04:17.516Z,7.9
2022-11-19T04:09:56.182Z,7.8
2022-11-19T04:15:32.211Z,7.6
2022-11-19T04:20:54.560Z,7.6
2022-11-19T04:26:01.642Z,7.4
2022-11-19T04:31:39.470Z,7.4
2022-11-19T04:36:45.896Z,7.4
2022-11-19T04:42:23.676Z,7.4
2022-11-19T04:47:30.074Z,7.4
2022-11-19T04:53:14.059Z,7.4
2022-11-19T04:58:52.988Z,7.3
2022-11-19T05:04:15.785Z,7.4
2022-11-19T05:09:38.422Z,7.4
2022-11-19T05:15:20.715Z,7.4
2022-11-19T05:20:57.964Z,7.4
2022-11-19T05:26:36.172Z,7.4
2022-11-19T05:32:21.418Z,7.4
2022-11-19T05:38:03.826Z,7.4
2022-11-19T05:43:41.865Z,7.4
2022-11-19T05:49:19.697Z,7.4
2022-11-19T05:54:57.685Z,7.5
2022-11-19T06:00:36.331Z,7.6
2022-11-19T06:06:15.035Z,7.8
2022-11-19T06:11:51.732Z,7.9
2022-11-19T06:17:34.332Z,8.1
2022-11-19T06:23:13.807Z,9.6
2022-11-19T06:28:36.585Z,15
2022-11-19T06:34:14.835Z,21.6
2022-11-19T06:39:59.432Z,26.1
2022-11-19T06:45:42.607Z,30.8
2022-11-19T06:51:21.872Z,34.8
2022-11-19T06:57:01.633Z,38.9
2022-11-19T07:02:39.882Z,42.9
2022-11-19T07:08:20.032Z,46.4
2022-11-19T07:13:57.746Z,50
2022-11-19T07:19:21.880Z,54.1
2022-11-19T07:25:01.380Z,58.7
2022-11-19T07:30:39.851Z,59.2
2022-11-19T07:36:18.492Z,59.1
2022-11-19T07:42:02.612Z,57.9
2022-11-19T07:47:46.436Z,57.8
2022-11-19T07:58:43.091Z,61.9
2022-11-19T08:04:25.971Z,66.9
2022-11-19T08:10:03.537Z,60.8
2022-11-19T08:15:41.810Z,49.8
2022-11-19T08:21:24.288Z,55.8
2022-11-19T08:27:02.015Z,62.7
2022-11-19T08:32:43.066Z,65.9
2022-11-19T08:38:21.411Z,56.9
2022-11-19T08:44:00.187Z,61.1
2022-11-19T08:49:38.234Z,66.4
2022-11-19T08:55:16.288Z,62.4
2022-11-19T09:00:57.373Z,62.4
2022-11-19T09:06:41.905Z,63.8
2022-11-19T09:12:20.033Z,63.4
2022-11-19T09:17:46.704Z,65.4
2022-11-19T09:23:24.729Z,65.8
2022-11-19T09:29:08.294Z,66.1
2022-11-19T09:34:45.604Z,66.5
2022-11-19T09:40:23.597Z,67.4
2022-11-19T09:46:08.118Z,67.1
2022-11-19T09:51:45.282Z,62.1
2022-11-19T09:57:23.622Z,62.8
2022-11-19T10:02:46.447Z,65.8
2022-11-19T10:08:24.020Z,71.9
2022-11-19T10:14:08.307Z,64.3
2022-11-19T10:19:36.342Z,63.6
2022-11-19T10:25:15.584Z,74.7
2022-11-19T10:30:53.434Z,62.8
2022-11-19T10:36:31.480Z,67.1
2022-11-19T10:42:14.516Z,68.4
2022-11-19T10:47:55.811Z,60.6
2022-11-19T10:53:37.152Z,62.1
2022-11-19T10:59:04.053Z,62.6
2022-11-19T11:04:29.981Z,60.8
2022-11-19T11:10:09.829Z,59.6
2022-11-19T11:15:47.453Z,61.9
2022-11-19T11:21:26.722Z,69.9
2022-11-19T11:27:09.179Z,74.3
2022-11-19T11:32:46.993Z,61.8
2022-11-19T11:38:19.392Z,59.7
2022-11-19T11:44:01.916Z,58
2022-11-19T11:49:46.422Z,57.1
2022-11-19T11:55:09.237Z,54.9
2022-11-19T12:05:52.048Z,48.7
2022-11-19T12:11:35.829Z,45.8
2022-11-19T12:17:19.579Z,44
2022-11-19T12:22:41.993Z,43.2
2022-11-19T12:28:19.475Z,41.9
2022-11-19T12:33:56.964Z,40.3
2022-11-19T12:39:34.889Z,39
2022-11-19T12:45:14.153Z,37.8
2022-11-19T12:50:53.873Z,36.4
2022-11-19T12:56:37.315Z,35.1
2022-11-19T13:02:15.883Z,34.1
2022-11-19T13:07:41.543Z,32.9
2022-11-19T13:13:04.203Z,31.6
2022-11-19T13:18:26.933Z,30.7
2022-11-19T13:24:04.433Z,29.6
2022-11-19T13:29:42.468Z,28.7
2022-11-19T13:35:20.771Z,27.9
2022-11-19T13:41:04.030Z,27
2022-11-19T13:47:07.773Z,26.1
2022-11-19T13:52:47.618Z,25.4
2022-11-19T13:58:28.418Z,24.8
2022-11-19T14:04:06.467Z,23.9
2022-11-19T14:09:49.206Z,23.3
2022-11-19T14:15:11.542Z,22.6
2022-11-19T14:20:23.144Z,22
2022-11-19T14:25:45.965Z,21.5
2022-11-19T14:31:24.182Z,20.9
2022-11-19T14:37:02.669Z,20.4
2022-11-19T14:42:45.189Z,19.8
2022-11-19T14:48:08.709Z,19.3
2022-11-19T14:53:46.771Z,18.9
2022-11-19T14:59:25.267Z,18.4
2022-11-19T15:05:03.577Z,17.9
2022-11-19T15:10:47.527Z,17.5
2022-11-19T15:21:46.987Z,16.6
2022-11-19T15:27:15.570Z,16.1
2022-11-19T15:32:24.511Z,15.6
2022-11-19T15:38:22.171Z,15.2
2022-11-19T15:43:44.975Z,14.8
2022-11-19T15:49:07.354Z,14.4
2022-11-19T15:54:20.937Z,14.1
2022-11-19T15:59:43.192Z,13.8
2022-11-19T16:05:06.796Z,13.6
2022-11-19T16:10:29.041Z,13.5
2022-11-19T16:15:53.914Z,13.5
2022-11-19T16:21:22.329Z,13.4
2022-11-19T16:27:04.459Z,13.4
2022-11-19T16:32:42.924Z,13.3
2022-11-19T16:38:27.765Z,13.2
2022-11-19T16:44:05.650Z,13.1
2022-11-19T16:49:28.584Z,13
2022-11-19T16:55:06.257Z,12.8
2022-11-19T17:00:32.822Z,12.7
2022-11-19T17:06:16.542Z,12.6
2022-11-19T17:11:54.140Z,12.5
2022-11-19T17:17:17.120Z,12.4
2022-11-19T17:23:00.958Z,12.3
2022-11-19T17:28:27.416Z,12.2
2022-11-19T17:34:10.576Z,12.1
2022-11-19T17:39:32.460Z,12.1
2022-11-19T17:44:55.808Z,12
2022-11-19T17:50:30.181Z,11.9
2022-11-19T17:55:52.669Z,11.9
2022-11-19T18:01:30.797Z,11.8
2022-11-19T18:07:10.997Z,11.8
2022-11-19T18:12:18.648Z,11.6
2022-11-19T18:17:27.311Z,11.5
2022-11-19T18:23:06.858Z,11.4
2022-11-19T18:28:48.738Z,11.3
2022-11-19T18:34:13.137Z,11.1
2022-11-19T18:39:38.312Z,11
2022-11-19T18:45:22.916Z,10.8
2022-11-19T18:51:04.292Z,10.7
2022-11-19T18:56:43.559Z,10.5
2022-11-19T19:02:14.249Z,10.4
2022-11-19T19:07:27.354Z,10.3
2022-11-19T19:12:53.963Z,10.3
2022-11-19T19:18:36.622Z,10.2
2022-11-19T19:24:01.200Z,10.2
2022-11-19T19:29:47.637Z,10.2
2022-11-19T19:35:16.900Z,10.2
2022-11-19T19:40:56.207Z,10.1
2022-11-19T19:46:41.271Z,10.2
2022-11-19T19:52:21.051Z,10.2
2022-11-19T19:58:00.665Z,10.2
2022-11-19T20:03:26.083Z,10.3
2022-11-19T20:09:08.460Z,10.4
2022-11-19T20:14:49.169Z,10.4
2022-11-19T20:20:17.680Z,10.4
2022-11-19T20:25:58.167Z,10.4
2022-11-19T20:31:38.319Z,10.4
2022-11-19T20:37:16.327Z,10.5
2022-11-19T20:42:38.966Z,10.4
2022-11-19T20:48:23.537Z,10.4
2022-11-19T20:54:05.146Z,10.4
2022-11-19T20:59:47.760Z,10.4
2022-11-19T21:05:30.215Z,10.4
2022-11-19T21:10:58.556Z,10.4
2022-11-19T21:16:20.673Z,10.4
2022-11-19T21:22:02.346Z,10.3
2022-11-19T21:27:45.465Z,10.4
2022-11-19T21:33:23.858Z,10.3
2022-11-19T21:39:03.084Z,10.3
2022-11-19T21:44:42.875Z,10.3
2022-11-19T21:50:20.858Z,10.4
2022-11-19T21:55:58.292Z,10.4
2022-11-19T22:01:42.271Z,10.4
2022-11-19T22:07:19.832Z,10.4
2022-11-19T22:12:48.077Z,10.5
2022-11-19T22:18:10.610Z,10.6
2022-11-19T22:23:48.833Z,10.6
2022-11-19T22:29:27.174Z,10.6
2022-11-19T22:35:10.983Z,10.8
2022-11-19T22:40:54.748Z,10.9
2022-11-19T22:45:45.987Z,10.9
2022-11-19T22:51:08.500Z,10.9
2022-11-19T22:56:15.969Z,11.2
2022-11-19T23:01:39.380Z,11.2
2022-11-19T23:07:22.394Z,11.4
2022-11-19T23:12:45.153Z,11.4
2022-11-19T23:18:23.456Z,11.8
2022-11-19T23:24:04.048Z,12.1
2022-11-19T23:29:41.828Z,12.5
2022-11-19T23:35:25.818Z,12.8
2022-11-19T23:40:49.138Z,13.1
2022-11-19T23:46:31.636Z,13.7
2022-11-19T23:52:09.689Z,14
2022-11-19T23:57:48.441Z,14.5
